createdAt,value
2017-10-26T00:00:58.599Z,0.00
2017-10-26T00:01:58.600Z,0.00
2017-10-26T00:02:58.593Z,0.00
2017-10-26T00:03:58.595Z,0.00
2017-10-26T00:04:58.595Z,0.00
2017-10-26T00:05:58.589Z,0.00
2017-10-26T00:06:58.593Z,0.00
2017-10-26T00:07:58.590Z,0.00
2017-10-26T00:08:58.587Z,0.00
2017-10-26T00:09:58.592Z,0.00
2017-10-26T00:10:58.598Z,0.00
2017-10-26T00:11:58.580Z,0.00
2017-10-26T00:12:58.577Z,0.00
2017-10-26T00:13:58.577Z,0.00
2017-10-26T00:14:58.577Z,0.00
2017-10-26T00:15:58.576Z,0.00
2017-10-26T00:16:58.575Z,0.00
2017-10-26T00:17:58.571Z,0.00
2017-10-26T00:18:58.570Z,0.00
2017-10-26T00:19:58.570Z,0.00
2017-10-26T00:20:58.566Z,0.00
2017-10-26T00:21:58.561Z,0.00
2017-10-26T00:22:58.564Z,0.00
2017-10-26T00:23:58.560Z,0.00
2017-10-26T00:24:58.559Z,0.00
2017-10-26T00:25:58.565Z,0.00
2017-10-26T00:26:58.555Z,0.00
2017-10-26T00:27:58.554Z,0.00
2017-10-26T00:28:58.552Z,0.00
2017-10-26T00:29:58.550Z,0.00
2017-10-26T00:30:58.547Z,0.00
2017-10-26T00:31:58.549Z,0.00
2017-10-26T00:32:58.547Z,0.00
2017-10-26T00:33:58.542Z,0.00
2017-10-26T00:34:58.540Z,0.00
2017-10-26T00:35:58.539Z,0.00
2017-10-26T00:36:58.537Z,0.00
2017-10-26T00:37:58.535Z,0.00
2017-10-26T00:38:58.537Z,0.00
2017-10-26T00:39:58.534Z,0.00
2017-10-26T00:40:58.530Z,0.00
2017-10-26T00:41:58.530Z,0.00
2017-10-26T00:42:58.526Z,0.00
2017-10-26T00:43:58.527Z,0.00
2017-10-26T00:44:58.527Z,0.00
2017-10-26T00:45:58.520Z,0.00
2017-10-26T00:46:58.519Z,0.00
2017-10-26T00:47:58.517Z,0.00
2017-10-26T00:48:58.518Z,0.00
2017-10-26T00:49:58.513Z,0.00
2017-10-26T00:50:58.513Z,0.00
2017-10-26T00:51:58.521Z,0.00
2017-10-26T00:52:58.511Z,0.00
2017-10-26T00:53:58.509Z,0.00
2017-10-26T00:54:58.504Z,0.00
2017-10-26T00:55:58.504Z,0.00
2017-10-26T00:56:58.505Z,0.00
2017-10-26T00:57:58.507Z,0.00
2017-10-26T00:58:58.500Z,0.00
2017-10-26T00:59:58.501Z,0.00
2017-10-26T01:00:58.500Z,0.00
2017-10-26T01:01:58.494Z,0.00
2017-10-26T01:02:58.492Z,0.00
2017-10-26T01:03:58.493Z,0.00
2017-10-26T01:04:58.490Z,0.00
2017-10-26T01:05:58.489Z,0.00
2017-10-26T01:06:58.485Z,0.00
2017-10-26T01:07:58.485Z,0.00
2017-10-26T01:08:58.487Z,0.00
2017-10-26T01:09:58.482Z,0.00
2017-10-26T01:10:58.482Z,0.00
2017-10-26T01:11:58.481Z,0.00
2017-10-26T01:12:58.476Z,0.00
2017-10-26T01:13:58.476Z,0.00
2017-10-26T01:14:58.475Z,0.00
2017-10-26T01:15:58.473Z,0.00
2017-10-26T01:16:58.473Z,0.00
2017-10-26T01:17:58.474Z,0.00
2017-10-26T01:18:58.467Z,0.00
2017-10-26T01:19:58.469Z,0.00
2017-10-26T01:20:58.465Z,0.00
2017-10-26T01:21:58.460Z,0.00
2017-10-26T01:22:58.461Z,0.00
2017-10-26T01:23:58.458Z,0.00
2017-10-26T01:24:58.457Z,0.00
2017-10-26T01:25:58.457Z,0.00
2017-10-26T01:26:58.455Z,0.00
2017-10-26T01:27:58.455Z,0.00
2017-10-26T01:28:58.452Z,0.00
2017-10-26T01:29:58.451Z,0.00
2017-10-26T01:30:58.448Z,0.00
2017-10-26T01:31:58.445Z,0.00
2017-10-26T01:32:58.444Z,0.00
2017-10-26T01:33:58.439Z,0.00
2017-10-26T01:34:58.440Z,0.00
2017-10-26T01:35:58.440Z,0.00
2017-10-26T01:36:58.437Z,0.00
2017-10-26T01:37:58.435Z,0.00
2017-10-26T01:38:58.432Z,0.00
2017-10-26T01:39:58.436Z,0.00
2017-10-26T01:40:58.433Z,0.00
2017-10-26T01:41:58.427Z,0.00
2017-10-26T01:42:58.425Z,0.00
2017-10-26T01:43:58.425Z,0.00
2017-10-26T01:44:58.424Z,0.00
2017-10-26T01:45:58.417Z,0.00
2017-10-26T01:46:58.421Z,0.00
2017-10-26T01:47:58.412Z,0.00
2017-10-26T01:48:58.416Z,0.00
2017-10-26T01:49:58.415Z,0.00
2017-10-26T01:50:58.410Z,0.00
2017-10-26T01:51:58.411Z,0.00
2017-10-26T01:52:58.410Z,0.00
2017-10-26T01:53:58.407Z,0.00
2017-10-26T01:54:58.405Z,0.00
2017-10-26T01:55:58.403Z,0.00
2017-10-26T01:56:58.401Z,0.00
2017-10-26T01:57:58.397Z,0.00
2017-10-26T01:58:58.394Z,0.00
2017-10-26T01:59:58.396Z,0.00
2017-10-26T02:00:58.395Z,0.00
2017-10-26T02:01:58.394Z,0.00
2017-10-26T02:02:58.390Z,0.00
2017-10-26T02:03:58.389Z,0.00
2017-10-26T02:04:58.388Z,0.00
2017-10-26T02:05:58.384Z,0.00
2017-10-26T02:06:58.381Z,0.00
2017-10-26T02:07:58.381Z,0.00
2017-10-26T02:08:58.380Z,0.00
2017-10-26T02:09:58.379Z,0.00
2017-10-26T02:10:58.374Z,0.00
2017-10-26T02:11:58.380Z,0.00
2017-10-26T02:12:58.374Z,0.00
2017-10-26T02:13:58.368Z,0.00
2017-10-26T02:14:58.369Z,0.00
2017-10-26T02:15:58.366Z,0.00
2017-10-26T02:16:58.366Z,0.00
2017-10-26T02:17:58.368Z,0.00
2017-10-26T02:18:58.363Z,0.00
2017-10-26T02:19:58.364Z,0.00
2017-10-26T02:20:58.356Z,0.00
2017-10-26T02:21:58.353Z,0.00
2017-10-26T02:22:58.355Z,0.00
2017-10-26T02:23:58.352Z,0.00
2017-10-26T02:24:58.351Z,0.00
2017-10-26T02:25:58.348Z,0.00
2017-10-26T02:26:58.342Z,0.00
2017-10-26T02:27:58.346Z,0.00
2017-10-26T02:28:58.342Z,0.00
2017-10-26T02:29:58.345Z,0.00
2017-10-26T02:30:58.340Z,0.00
2017-10-26T02:31:58.338Z,0.00
2017-10-26T02:32:58.338Z,0.00
2017-10-26T02:33:58.334Z,0.00
2017-10-26T02:34:58.337Z,0.00
2017-10-26T02:35:58.333Z,0.00
2017-10-26T02:36:58.327Z,0.00
2017-10-26T02:37:58.328Z,0.00
2017-10-26T02:38:58.323Z,0.00
2017-10-26T02:39:58.328Z,0.00
2017-10-26T02:40:58.321Z,0.00
2017-10-26T02:41:58.321Z,0.00
2017-10-26T02:42:58.319Z,0.00
2017-10-26T02:43:58.314Z,0.00
2017-10-26T02:44:58.311Z,0.00
2017-10-26T02:45:58.309Z,0.00
2017-10-26T02:46:58.308Z,0.00
2017-10-26T02:47:58.308Z,0.00
2017-10-26T02:48:58.303Z,0.00
2017-10-26T02:49:58.303Z,0.00
2017-10-26T02:50:58.305Z,0.00
2017-10-26T02:51:58.301Z,0.00
2017-10-26T02:52:58.296Z,0.00
2017-10-26T02:53:58.294Z,0.00
2017-10-26T02:54:58.294Z,0.00
2017-10-26T02:55:58.291Z,0.00
2017-10-26T02:56:58.286Z,0.00
2017-10-26T02:57:58.292Z,0.00
2017-10-26T02:58:58.283Z,0.00
2017-10-26T02:59:58.287Z,0.00
2017-10-26T03:00:58.313Z,0.00
2017-10-26T03:01:58.279Z,0.00
2017-10-26T03:02:58.277Z,0.00
2017-10-26T03:03:58.276Z,0.00
2017-10-26T03:04:58.273Z,0.00
2017-10-26T03:05:58.267Z,0.00
2017-10-26T03:06:58.269Z,0.00
2017-10-26T03:07:58.267Z,0.00
2017-10-26T03:08:58.265Z,0.00
2017-10-26T03:09:58.265Z,0.00
2017-10-26T03:10:58.260Z,0.00
2017-10-26T03:11:58.258Z,0.00
2017-10-26T03:12:58.256Z,0.00
2017-10-26T03:13:58.254Z,0.00
2017-10-26T03:14:58.253Z,0.00
2017-10-26T03:15:58.250Z,0.00
2017-10-26T03:16:58.248Z,0.00
2017-10-26T03:17:58.246Z,0.00
2017-10-26T03:18:58.243Z,0.00
2017-10-26T03:19:58.245Z,0.00
2017-10-26T03:20:58.240Z,0.00
2017-10-26T03:21:58.239Z,0.00
2017-10-26T03:22:58.238Z,0.00
2017-10-26T03:23:58.233Z,0.00
2017-10-26T03:24:58.235Z,0.00
2017-10-26T03:25:58.232Z,0.00
2017-10-26T03:26:58.232Z,0.00
2017-10-26T03:27:58.229Z,0.00
2017-10-26T03:28:58.228Z,0.00
2017-10-26T03:29:58.224Z,0.00
2017-10-26T03:30:58.222Z,0.00
2017-10-26T03:31:58.220Z,0.00
2017-10-26T03:32:58.217Z,0.00
2017-10-26T03:33:58.217Z,0.00
2017-10-26T03:34:58.215Z,0.00
2017-10-26T03:35:58.214Z,0.00
2017-10-26T03:36:58.221Z,0.00
2017-10-26T03:37:58.211Z,0.00
2017-10-26T03:38:58.210Z,0.00
2017-10-26T03:39:58.207Z,0.00
2017-10-26T03:40:58.206Z,0.00
2017-10-26T03:41:58.203Z,0.00
2017-10-26T03:42:58.203Z,0.00
2017-10-26T03:43:58.200Z,0.00
2017-10-26T03:44:58.199Z,0.00
2017-10-26T03:45:58.200Z,0.00
2017-10-26T03:46:58.194Z,0.00
2017-10-26T03:47:58.194Z,0.00
2017-10-26T03:48:58.191Z,0.00
2017-10-26T03:49:58.190Z,0.00
2017-10-26T03:50:58.190Z,0.00
2017-10-26T03:51:58.187Z,0.00
2017-10-26T03:52:58.188Z,0.00
2017-10-26T03:53:58.183Z,0.00
2017-10-26T03:54:58.187Z,0.00
2017-10-26T03:55:58.180Z,0.00
2017-10-26T03:56:58.180Z,0.00
2017-10-26T03:57:58.177Z,0.00
2017-10-26T03:58:58.172Z,0.00
2017-10-26T03:59:58.177Z,0.00
2017-10-26T04:00:58.165Z,0.00
2017-10-26T04:01:58.165Z,0.00
2017-10-26T04:02:58.168Z,0.00
2017-10-26T04:03:58.163Z,0.00
2017-10-26T04:04:58.165Z,0.00
2017-10-26T04:05:58.163Z,0.00
2017-10-26T04:06:58.159Z,0.00
2017-10-26T04:07:58.160Z,0.00
2017-10-26T04:08:58.151Z,0.00
2017-10-26T04:09:58.155Z,0.00
2017-10-26T04:10:58.152Z,0.00
2017-10-26T04:11:58.151Z,0.00
2017-10-26T04:12:58.153Z,0.00
2017-10-26T04:13:58.148Z,0.00
2017-10-26T04:14:58.145Z,0.00
2017-10-26T04:15:58.150Z,0.00
2017-10-26T04:16:58.144Z,0.00
2017-10-26T04:17:58.143Z,0.00
2017-10-26T04:18:58.136Z,0.00
2017-10-26T04:19:58.136Z,0.00
2017-10-26T04:20:58.132Z,0.00
2017-10-26T04:21:58.142Z,0.00
2017-10-26T04:22:58.134Z,0.00
2017-10-26T04:23:58.135Z,0.00
2017-10-26T04:24:58.129Z,0.00
2017-10-26T04:25:58.125Z,0.00
2017-10-26T04:26:58.126Z,0.00
2017-10-26T04:27:58.123Z,0.00
2017-10-26T04:28:58.124Z,0.00
2017-10-26T04:29:58.118Z,0.00
2017-10-26T04:30:58.121Z,0.00
2017-10-26T04:31:58.116Z,0.00
2017-10-26T04:32:58.112Z,0.00
2017-10-26T04:33:58.113Z,0.00
2017-10-26T04:34:58.112Z,0.00
2017-10-26T04:35:58.117Z,0.00
2017-10-26T04:36:58.108Z,0.00
2017-10-26T04:37:58.108Z,0.00
2017-10-26T04:38:58.109Z,0.00
2017-10-26T04:39:58.109Z,0.00
2017-10-26T04:40:58.100Z,0.00
2017-10-26T04:41:58.102Z,0.00
2017-10-26T04:42:58.097Z,0.00
2017-10-26T04:43:58.095Z,0.00
2017-10-26T04:44:58.093Z,0.00
2017-10-26T04:45:58.090Z,0.00
2017-10-26T04:46:58.090Z,0.00
2017-10-26T04:47:58.090Z,0.00
2017-10-26T04:48:58.090Z,0.00
2017-10-26T04:49:58.083Z,0.00
2017-10-26T04:50:58.084Z,0.00
2017-10-26T04:51:58.080Z,0.00
2017-10-26T04:52:58.079Z,0.00
2017-10-26T04:53:58.075Z,0.00
2017-10-26T04:54:58.071Z,0.00
2017-10-26T04:55:58.074Z,0.00
2017-10-26T04:56:58.073Z,0.00
2017-10-26T04:57:58.073Z,0.00
2017-10-26T04:58:58.066Z,0.00
2017-10-26T04:59:58.062Z,0.00
2017-10-26T05:00:58.066Z,0.00
2017-10-26T05:01:58.061Z,0.00
2017-10-26T05:02:58.059Z,0.00
2017-10-26T05:03:58.057Z,0.00
2017-10-26T05:04:58.060Z,0.00
2017-10-26T05:05:58.055Z,0.00
2017-10-26T05:06:58.046Z,0.00
2017-10-26T05:07:58.075Z,0.00
2017-10-26T05:08:58.053Z,0.00
2017-10-26T05:09:58.052Z,0.00
2017-10-26T05:10:58.045Z,0.00
2017-10-26T05:11:58.041Z,0.00
2017-10-26T05:12:58.044Z,0.00
2017-10-26T05:13:58.038Z,0.00
2017-10-26T05:14:58.037Z,0.00
2017-10-26T05:15:58.032Z,0.00
2017-10-26T05:16:58.032Z,0.00
2017-10-26T05:17:58.033Z,0.00
2017-10-26T05:18:58.026Z,0.00
2017-10-26T05:19:58.033Z,0.00
2017-10-26T05:20:58.026Z,0.00
2017-10-26T05:21:58.022Z,0.00
2017-10-26T05:22:58.022Z,0.00
2017-10-26T05:23:58.018Z,4.00
2017-10-26T05:24:58.020Z,4.00
2017-10-26T05:25:58.014Z,4.00
2017-10-26T05:26:58.013Z,4.00
2017-10-26T05:27:58.012Z,4.00
2017-10-26T05:28:58.012Z,8.00
2017-10-26T05:29:58.009Z,4.00
2017-10-26T05:30:58.014Z,8.00
2017-10-26T05:31:58.005Z,8.00
2017-10-26T05:32:58.005Z,8.00
2017-10-26T05:33:58.010Z,12.00
2017-10-26T05:34:58.000Z,12.00
2017-10-26T05:35:57.997Z,16.00
2017-10-26T05:36:58.001Z,20.00
2017-10-26T05:37:58.022Z,24.00
2017-10-26T05:38:57.996Z,28.00
2017-10-26T05:39:57.990Z,36.00
2017-10-26T05:40:57.992Z,40.00
2017-10-26T05:41:57.987Z,44.00
2017-10-26T05:42:57.984Z,52.00
2017-10-26T05:43:57.986Z,60.00
2017-10-26T05:44:57.982Z,68.00
2017-10-26T05:45:57.977Z,72.00
2017-10-26T05:46:57.978Z,76.00
2017-10-26T05:47:57.976Z,84.00
2017-10-26T05:48:57.973Z,88.00
2017-10-26T05:49:57.971Z,92.00
2017-10-26T05:50:57.975Z,100.00
2017-10-26T05:51:57.968Z,104.00
2017-10-26T05:52:57.964Z,108.00
2017-10-26T05:53:57.969Z,128.00
2017-10-26T05:54:57.962Z,148.00
2017-10-26T05:55:57.962Z,172.00
2017-10-26T05:56:57.958Z,188.00
2017-10-26T05:57:57.954Z,204.00
2017-10-26T05:58:57.963Z,216.00
2017-10-26T05:59:57.954Z,228.00
2017-10-26T06:00:57.953Z,252.00
2017-10-26T06:01:57.966Z,272.00
2017-10-26T06:02:57.947Z,292.00
2017-10-26T06:03:57.951Z,312.00
2017-10-26T06:04:57.945Z,336.00
2017-10-26T06:05:57.943Z,364.00
2017-10-26T06:06:57.946Z,396.00
2017-10-26T06:07:57.941Z,432.00
2017-10-26T06:08:57.937Z,464.00
2017-10-26T06:09:57.934Z,504.00
2017-10-26T06:10:57.935Z,532.00
2017-10-26T06:11:57.935Z,568.00
2017-10-26T06:12:57.930Z,604.00
2017-10-26T06:13:57.936Z,636.00
2017-10-26T06:14:57.927Z,680.00
2017-10-26T06:15:57.941Z,720.00
2017-10-26T06:16:57.926Z,760.00
2017-10-26T06:17:57.921Z,792.00
2017-10-26T06:18:57.918Z,808.00
2017-10-26T06:19:57.919Z,812.00
2017-10-26T06:20:57.915Z,808.00
2017-10-26T06:21:57.912Z,804.00
2017-10-26T06:22:57.917Z,796.00
2017-10-26T06:23:57.908Z,772.00
2017-10-26T06:24:57.910Z,776.00
2017-10-26T06:25:57.901Z,796.00
2017-10-26T06:26:57.908Z,820.00
2017-10-26T06:27:57.905Z,844.00
2017-10-26T06:28:57.914Z,880.00
2017-10-26T06:29:57.902Z,936.00
2017-10-26T06:30:57.896Z,964.00
2017-10-26T06:31:57.913Z,996.00
2017-10-26T06:32:57.899Z,1040.00
2017-10-26T06:33:57.892Z,1092.00
2017-10-26T06:34:57.890Z,1172.00
2017-10-26T06:35:57.886Z,1256.00
2017-10-26T06:36:57.887Z,1320.00
2017-10-26T06:37:57.883Z,1400.00
2017-10-26T06:38:57.883Z,1492.00
2017-10-26T06:39:57.883Z,1500.00
2017-10-26T06:40:57.897Z,1292.00
2017-10-26T06:41:57.877Z,1424.00
2017-10-26T06:42:57.880Z,1516.00
2017-10-26T06:43:57.876Z,1524.00
2017-10-26T06:44:57.874Z,1500.00
2017-10-26T06:45:57.876Z,1472.00
2017-10-26T06:46:57.885Z,1468.00
2017-10-26T06:47:57.872Z,1444.00
2017-10-26T06:48:57.862Z,1440.00
2017-10-26T06:49:57.864Z,1496.00
2017-10-26T06:50:57.866Z,1568.00
2017-10-26T06:51:57.863Z,1564.00
2017-10-26T06:52:57.863Z,1512.00
2017-10-26T06:53:57.857Z,1464.00
2017-10-26T06:54:57.857Z,1456.00
2017-10-26T06:55:57.856Z,1496.00
2017-10-26T06:56:57.870Z,1544.00
2017-10-26T06:57:57.853Z,1572.00
2017-10-26T06:58:57.871Z,1592.00
2017-10-26T06:59:57.851Z,1576.00
2017-10-26T07:00:57.852Z,1568.00
2017-10-26T07:01:57.858Z,1588.00
2017-10-26T07:02:57.854Z,1584.00
2017-10-26T07:03:57.844Z,1568.00
2017-10-26T07:04:57.846Z,1552.00
2017-10-26T07:05:57.843Z,1576.00
2017-10-26T07:06:57.841Z,1552.00
2017-10-26T07:07:57.843Z,1624.00
2017-10-26T07:08:57.833Z,1740.00
2017-10-26T07:09:57.836Z,1796.00
2017-10-26T07:10:57.838Z,1960.00
2017-10-26T07:11:57.834Z,2084.00
2017-10-26T07:12:57.837Z,2296.00
2017-10-26T07:13:57.830Z,2472.00
2017-10-26T07:14:57.831Z,2568.00
2017-10-26T07:15:57.833Z,2804.00
2017-10-26T07:16:57.829Z,2972.00
2017-10-26T07:17:57.833Z,3140.00
2017-10-26T07:18:57.824Z,3504.00
2017-10-26T07:19:57.827Z,3588.00
2017-10-26T07:20:57.824Z,3640.00
2017-10-26T07:21:57.822Z,3840.00
2017-10-26T07:22:57.817Z,3924.00
2017-10-26T07:23:57.823Z,3972.00
2017-10-26T07:24:57.821Z,3880.00
2017-10-26T07:25:57.827Z,3688.00
2017-10-26T07:26:57.816Z,3544.00
2017-10-26T07:27:57.820Z,3536.00
2017-10-26T07:28:57.817Z,3548.00
2017-10-26T07:29:57.813Z,3576.00
2017-10-26T07:30:57.813Z,3656.00
2017-10-26T07:31:57.817Z,3824.00
2017-10-26T07:32:58.509Z,3756.00
2017-10-26T07:33:57.810Z,3568.00
2017-10-26T07:34:57.811Z,3332.00
2017-10-26T07:35:57.811Z,3136.00
2017-10-26T07:36:57.810Z,3216.00
2017-10-26T07:37:57.806Z,3544.00
2017-10-26T07:38:57.809Z,3660.00
2017-10-26T07:39:57.804Z,3708.00
2017-10-26T07:40:57.802Z,3848.00
2017-10-26T07:41:57.802Z,3896.00
2017-10-26T07:42:57.806Z,3996.00
2017-10-26T07:43:57.797Z,4120.00
2017-10-26T07:44:57.804Z,4312.00
2017-10-26T07:45:57.799Z,4356.00
2017-10-26T07:46:57.796Z,4192.00
2017-10-26T07:47:57.799Z,3984.00
2017-10-26T07:48:57.793Z,3728.00
2017-10-26T07:49:57.795Z,3616.00
2017-10-26T07:50:57.794Z,3620.00
2017-10-26T07:51:57.796Z,3596.00
2017-10-26T07:52:57.796Z,3684.00
2017-10-26T07:53:57.789Z,3796.00
2017-10-26T07:54:57.790Z,3676.00
2017-10-26T07:55:57.802Z,3496.00
2017-10-26T07:56:57.792Z,3424.00
2017-10-26T07:57:57.794Z,3444.00
2017-10-26T07:58:57.836Z,3512.00
2017-10-26T07:59:57.786Z,3604.00
2017-10-26T08:00:57.835Z,3672.00
2017-10-26T08:01:57.795Z,3744.00
2017-10-26T08:02:57.791Z,3844.00
2017-10-26T08:03:57.797Z,3860.00
2017-10-26T08:04:57.793Z,3896.00
2017-10-26T08:05:57.779Z,3896.00
2017-10-26T08:06:57.785Z,3988.00
2017-10-26T08:07:57.783Z,3928.00
2017-10-26T08:08:57.780Z,3948.00
2017-10-26T08:09:57.780Z,4084.00
2017-10-26T08:10:57.791Z,4416.00
2017-10-26T08:11:57.787Z,4584.00
2017-10-26T08:12:57.781Z,4988.00
2017-10-26T08:13:57.788Z,5032.00
2017-10-26T08:14:57.777Z,4936.00
2017-10-26T08:15:57.780Z,4880.00
2017-10-26T08:16:57.786Z,4980.00
2017-10-26T08:17:57.775Z,4956.00
2017-10-26T08:18:57.771Z,5048.00
2017-10-26T08:19:57.774Z,5028.00
2017-10-26T08:20:57.776Z,4936.00
2017-10-26T08:21:57.774Z,5044.00
2017-10-26T08:22:57.778Z,5184.00
2017-10-26T08:23:57.773Z,5208.00
2017-10-26T08:24:57.774Z,5120.00
2017-10-26T08:25:57.772Z,5080.00
2017-10-26T08:26:57.772Z,4980.00
2017-10-26T08:27:57.773Z,4916.00
2017-10-26T08:28:57.774Z,4764.00
2017-10-26T08:29:57.765Z,4584.00
2017-10-26T08:30:57.767Z,4356.00
2017-10-26T08:31:57.769Z,4228.00
2017-10-26T08:32:57.772Z,4248.00
2017-10-26T08:33:57.770Z,4264.00
2017-10-26T08:34:57.769Z,4196.00
2017-10-26T08:35:57.779Z,4228.00
2017-10-26T08:36:57.765Z,4304.00
2017-10-26T08:37:57.780Z,4284.00
2017-10-26T08:38:57.762Z,4200.00
2017-10-26T08:39:57.771Z,4128.00
2017-10-26T08:40:57.766Z,4072.00
2017-10-26T08:41:57.780Z,4044.00
2017-10-26T08:42:57.774Z,4052.00
2017-10-26T08:43:57.767Z,4016.00
2017-10-26T08:44:57.770Z,4016.00
2017-10-26T08:45:57.765Z,4040.00
2017-10-26T08:46:57.766Z,4108.00
2017-10-26T08:47:57.767Z,4148.00
2017-10-26T08:48:57.770Z,4088.00
2017-10-26T08:49:57.764Z,3996.00
2017-10-26T08:50:57.764Z,4040.00
2017-10-26T08:51:57.764Z,3992.00
2017-10-26T08:52:57.763Z,3928.00
2017-10-26T08:53:57.765Z,3936.00
2017-10-26T08:54:57.765Z,3992.00
2017-10-26T08:55:57.756Z,4112.00
2017-10-26T08:56:57.768Z,4160.00
2017-10-26T08:57:57.779Z,4176.00
2017-10-26T08:58:57.795Z,4212.00
2017-10-26T08:59:57.769Z,4152.00
2017-10-26T09:00:57.791Z,4236.00
2017-10-26T09:01:57.758Z,4320.00
2017-10-26T09:02:57.765Z,4388.00
2017-10-26T09:03:57.761Z,4464.00
2017-10-26T09:04:57.760Z,4676.00
2017-10-26T09:05:57.761Z,4824.00
2017-10-26T09:06:57.758Z,4888.00
2017-10-26T09:07:57.755Z,5080.00
2017-10-26T09:08:57.764Z,4984.00
2017-10-26T09:09:57.757Z,4980.00
2017-10-26T09:10:57.756Z,4988.00
2017-10-26T09:11:57.766Z,4760.00
2017-10-26T09:12:57.760Z,4608.00
2017-10-26T09:13:57.762Z,4512.00
2017-10-26T09:14:57.756Z,4392.00
2017-10-26T09:15:57.751Z,4324.00
2017-10-26T09:16:57.755Z,4364.00
2017-10-26T09:17:57.754Z,4324.00
2017-10-26T09:18:57.754Z,4404.00
2017-10-26T09:19:57.755Z,4544.00
2017-10-26T09:20:57.761Z,5232.00
2017-10-26T09:21:57.755Z,5232.00
2017-10-26T09:22:57.766Z,5032.00
2017-10-26T09:23:57.755Z,6748.00
2017-10-26T09:24:57.761Z,6684.00
2017-10-26T09:25:57.753Z,6896.00
2017-10-26T09:26:57.756Z,6224.00
2017-10-26T09:27:57.761Z,6572.00
2017-10-26T09:28:57.756Z,7584.00
2017-10-26T09:29:57.755Z,7664.00
2017-10-26T09:30:57.758Z,7180.00
2017-10-26T09:31:57.756Z,7956.00
2017-10-26T09:32:59.552Z,8340.00
2017-10-26T09:33:57.762Z,6492.00
2017-10-26T09:34:57.756Z,6568.00
2017-10-26T09:35:57.759Z,6396.00
2017-10-26T09:36:57.759Z,6520.00
2017-10-26T09:37:57.775Z,6056.00
2017-10-26T09:38:57.762Z,6172.00
2017-10-26T09:39:57.759Z,6712.00
2017-10-26T09:40:57.757Z,7304.00
2017-10-26T09:41:57.760Z,7868.00
2017-10-26T09:42:57.767Z,7904.00
2017-10-26T09:43:57.764Z,7316.00
2017-10-26T09:44:57.775Z,7016.00
2017-10-26T09:45:57.800Z,7260.00
2017-10-26T09:46:57.767Z,8080.00
2017-10-26T09:47:57.793Z,8596.00
2017-10-26T09:48:57.766Z,8956.00
2017-10-26T09:49:57.768Z,8228.00
2017-10-26T09:50:57.772Z,7764.00
2017-10-26T09:51:57.773Z,7248.00
2017-10-26T09:52:57.780Z,7072.00
2017-10-26T09:53:57.773Z,6308.00
2017-10-26T09:54:57.772Z,6268.00
2017-10-26T09:55:57.788Z,5792.00
2017-10-26T09:56:57.792Z,5000.00
2017-10-26T09:57:57.775Z,4308.00
2017-10-26T09:58:57.791Z,4292.00
2017-10-26T09:59:57.778Z,4444.00
2017-10-26T10:00:57.794Z,4364.00
2017-10-26T10:01:57.779Z,4312.00
2017-10-26T10:02:57.782Z,4736.00
2017-10-26T10:03:57.788Z,5064.00
2017-10-26T10:04:57.786Z,5544.00
2017-10-26T10:05:57.789Z,5416.00
2017-10-26T10:06:57.806Z,5404.00
2017-10-26T10:07:57.802Z,5120.00
2017-10-26T10:08:57.798Z,4548.00
2017-10-26T10:09:57.788Z,4832.00
2017-10-26T10:10:57.794Z,5660.00
2017-10-26T10:11:57.791Z,5160.00
2017-10-26T10:12:57.792Z,5336.00
2017-10-26T10:13:57.805Z,5768.00
2017-10-26T10:14:59.543Z,5948.00
2017-10-26T10:15:57.795Z,6540.00
2017-10-26T10:16:57.796Z,6544.00
2017-10-26T10:17:57.796Z,6384.00
2017-10-26T10:18:57.806Z,5780.00
2017-10-26T10:19:57.800Z,5116.00
2017-10-26T10:20:57.809Z,5040.00
2017-10-26T10:21:57.802Z,4896.00
2017-10-26T10:22:57.818Z,4892.00
2017-10-26T10:23:57.799Z,4976.00
2017-10-26T10:24:57.801Z,5224.00
2017-10-26T10:25:57.804Z,5200.00
2017-10-26T10:26:57.801Z,5176.00
2017-10-26T10:27:57.810Z,5072.00
2017-10-26T10:28:57.824Z,5084.00
2017-10-26T10:29:57.803Z,4976.00
2017-10-26T10:30:57.810Z,5104.00
2017-10-26T10:31:57.804Z,5472.00
2017-10-26T10:32:57.802Z,5600.00
2017-10-26T10:33:57.815Z,5624.00
2017-10-26T10:34:57.813Z,5708.00
2017-10-26T10:35:57.807Z,5620.00
2017-10-26T10:36:57.813Z,6672.00
2017-10-26T10:37:57.803Z,7172.00
2017-10-26T10:38:57.806Z,7716.00
2017-10-26T10:39:57.816Z,7952.00
2017-10-26T10:40:57.811Z,8340.00
2017-10-26T10:41:57.810Z,8488.00
2017-10-26T10:42:57.805Z,8808.00
2017-10-26T10:43:57.811Z,9020.00
2017-10-26T10:44:57.818Z,9024.00
2017-10-26T10:45:57.814Z,8772.00
2017-10-26T10:46:57.812Z,8100.00
2017-10-26T10:47:57.812Z,7232.00
2017-10-26T10:48:57.819Z,6452.00
2017-10-26T10:49:57.816Z,6284.00
2017-10-26T10:50:57.816Z,6736.00
2017-10-26T10:51:57.825Z,8044.00
2017-10-26T10:52:57.833Z,9208.00
2017-10-26T10:53:57.826Z,8832.00
2017-10-26T10:54:57.901Z,8872.00
2017-10-26T10:55:57.825Z,8752.00
2017-10-26T10:56:57.918Z,9288.00
2017-10-26T10:57:57.840Z,9888.00
2017-10-26T10:58:57.831Z,9608.00
2017-10-26T10:59:57.829Z,9372.00
2017-10-26T11:00:57.838Z,10236.00
2017-10-26T11:01:57.841Z,9520.00
2017-10-26T11:02:57.860Z,8404.00
2017-10-26T11:03:57.848Z,8548.00
2017-10-26T11:04:57.843Z,8044.00
2017-10-26T11:05:57.850Z,7672.00
2017-10-26T11:06:57.875Z,7944.00
2017-10-26T11:07:57.853Z,7584.00
2017-10-26T11:08:57.855Z,7004.00
2017-10-26T11:09:57.849Z,6980.00
2017-10-26T11:10:57.856Z,7248.00
2017-10-26T11:11:57.856Z,7636.00
2017-10-26T11:12:57.869Z,7880.00
2017-10-26T11:13:57.851Z,8352.00
2017-10-26T11:14:57.853Z,9008.00
2017-10-26T11:15:57.861Z,9616.00
2017-10-26T11:16:57.870Z,9844.00
2017-10-26T11:17:57.861Z,9772.00
2017-10-26T11:18:57.867Z,9648.00
2017-10-26T11:19:58.613Z,10528.00
2017-10-26T11:20:57.919Z,10512.00
2017-10-26T11:21:57.939Z,8724.00
2017-10-26T11:22:57.979Z,7772.00
2017-10-26T11:23:57.877Z,6820.00
2017-10-26T11:24:57.889Z,7120.00
2017-10-26T11:25:57.879Z,8000.00
2017-10-26T11:26:57.928Z,7828.00
2017-10-26T11:27:57.883Z,7580.00
2017-10-26T11:28:57.877Z,7472.00
2017-10-26T11:29:57.886Z,7456.00
2017-10-26T11:30:57.902Z,7548.00
2017-10-26T11:31:57.984Z,7560.00
2017-10-26T11:32:57.888Z,7616.00
2017-10-26T11:33:57.914Z,7924.00
2017-10-26T11:34:57.894Z,8276.00
2017-10-26T11:35:57.893Z,8416.00
2017-10-26T11:36:57.924Z,7936.00
2017-10-26T11:37:57.897Z,7468.00
2017-10-26T11:38:57.899Z,7460.00
2017-10-26T11:39:57.900Z,7252.00
2017-10-26T11:40:57.901Z,6512.00
2017-10-26T11:41:57.903Z,5788.00
2017-10-26T11:42:57.903Z,5620.00
2017-10-26T11:43:57.933Z,5900.00
2017-10-26T11:44:57.912Z,6536.00
2017-10-26T11:45:57.911Z,7000.00
2017-10-26T11:46:57.919Z,6964.00
2017-10-26T11:47:57.910Z,7156.00
2017-10-26T11:48:57.932Z,7352.00
2017-10-26T11:49:57.921Z,7372.00
2017-10-26T11:50:57.926Z,7420.00
2017-10-26T11:51:57.923Z,7660.00
2017-10-26T11:52:57.931Z,7852.00
2017-10-26T11:53:57.926Z,7936.00
2017-10-26T11:54:57.931Z,7848.00
2017-10-26T11:55:57.931Z,7844.00
2017-10-26T11:56:57.928Z,7840.00
2017-10-26T11:57:57.954Z,7764.00
2017-10-26T11:58:57.926Z,7796.00
2017-10-26T11:59:57.935Z,7360.00
2017-10-26T12:00:57.947Z,7552.00
2017-10-26T12:01:57.936Z,7352.00
2017-10-26T12:02:57.972Z,7440.00
2017-10-26T12:03:57.967Z,7136.00
2017-10-26T12:04:57.999Z,6956.00
2017-10-26T12:05:57.945Z,6872.00
2017-10-26T12:06:57.941Z,6136.00
2017-10-26T12:07:57.960Z,5972.00
2017-10-26T12:08:57.959Z,5792.00
2017-10-26T12:09:57.956Z,6056.00
2017-10-26T12:10:58.054Z,6804.00
2017-10-26T12:11:58.029Z,7188.00
2017-10-26T12:12:57.994Z,7388.00
2017-10-26T12:13:57.978Z,7136.00
2017-10-26T12:14:57.954Z,6452.00
2017-10-26T12:15:57.964Z,5916.00
2017-10-26T12:16:57.956Z,5936.00
2017-10-26T12:17:57.957Z,6768.00
2017-10-26T12:18:57.961Z,7048.00
2017-10-26T12:19:57.963Z,7252.00
2017-10-26T12:20:57.966Z,7096.00
2017-10-26T12:21:57.965Z,6540.00
2017-10-26T12:22:57.965Z,6628.00
2017-10-26T12:23:57.968Z,7532.00
2017-10-26T12:24:57.969Z,8596.00
2017-10-26T12:25:57.974Z,8516.00
2017-10-26T12:26:57.976Z,8332.00
2017-10-26T12:27:57.970Z,8016.00
2017-10-26T12:28:57.979Z,7852.00
2017-10-26T12:29:57.971Z,7632.00
2017-10-26T12:30:57.988Z,7480.00
2017-10-26T12:31:57.986Z,7312.00
2017-10-26T12:32:57.981Z,7040.00
2017-10-26T12:33:57.983Z,6880.00
2017-10-26T12:34:57.980Z,6704.00
2017-10-26T12:35:57.984Z,6420.00
2017-10-26T12:36:57.993Z,6292.00
2017-10-26T12:37:57.986Z,6416.00
2017-10-26T12:38:57.989Z,6512.00